createdAt,value
2018-06-24T00:01:02.354Z,4.53
2018-06-24T00:04:06.086Z,4.47
2018-06-24T00:07:10.120Z,5.27
2018-06-24T00:10:13.780Z,4.17
2018-06-24T00:13:17.587Z,4.30
2018-06-24T00:16:21.262Z,4.10
2018-06-24T00:19:24.877Z,4.27
2018-06-24T00:22:28.505Z,4.10
2018-06-24T00:25:32.281Z,4.03
2018-06-24T00:28:35.971Z,4.10
2018-06-24T00:31:39.716Z,4.40
2018-06-24T00:34:43.505Z,4.10
2018-06-24T00:37:47.270Z,4.20
2018-06-24T00:40:50.896Z,4.30
2018-06-24T00:43:54.664Z,3.90
2018-06-24T00:46:58.535Z,4.33
2018-06-24T00:50:02.281Z,3.97
2018-06-24T00:53:05.933Z,3.80
2018-06-24T00:56:09.758Z,3.80
2018-06-24T00:59:24.690Z,3.80
2018-06-24T01:02:28.346Z,3.70
2018-06-24T01:05:32.701Z,3.90
2018-06-24T01:08:36.407Z,4.40
2018-06-24T01:11:40.067Z,4.20
2018-06-24T01:14:43.813Z,3.90
2018-06-24T01:17:47.421Z,4.00
2018-06-24T01:20:51.236Z,4.87
2018-06-24T01:23:54.978Z,4.00
2018-06-24T01:26:58.701Z,4.30
2018-06-24T01:30:02.342Z,4.33
2018-06-24T01:33:06.073Z,4.60
2018-06-24T01:36:09.721Z,4.20
2018-06-24T01:39:13.426Z,4.07
2018-06-24T01:42:17.041Z,4.27
2018-06-24T01:45:20.728Z,4.23
2018-06-24T01:48:24.432Z,4.37
2018-06-24T01:51:27.983Z,4.40
2018-06-24T01:54:31.681Z,3.63
2018-06-24T01:57:35.311Z,4.30
2018-06-24T02:00:38.980Z,4.13
2018-06-24T02:03:43.543Z,4.50
2018-06-24T02:06:47.159Z,4.50
2018-06-24T02:09:50.926Z,4.77
2018-06-24T02:12:54.498Z,4.13
2018-06-24T02:15:58.143Z,4.67
2018-06-24T02:19:01.922Z,4.10
2018-06-24T02:22:05.815Z,4.10
2018-06-24T02:25:09.704Z,4.37
2018-06-24T02:28:13.293Z,4.00
2018-06-24T02:31:17.092Z,3.87
2018-06-24T02:34:20.769Z,4.30
2018-06-24T02:37:24.458Z,4.27
2018-06-24T02:40:28.019Z,4.43
2018-06-24T02:43:31.587Z,4.03
2018-06-24T02:46:35.266Z,4.10
2018-06-24T02:49:38.954Z,4.00
2018-06-24T02:52:42.603Z,4.50
2018-06-24T02:55:46.258Z,4.60
2018-06-24T02:58:49.814Z,4.60
2018-06-24T03:01:53.477Z,4.57
2018-06-24T03:04:57.031Z,4.33
2018-06-24T03:08:00.823Z,4.47
2018-06-24T03:11:04.502Z,4.90
2018-06-24T03:14:08.218Z,3.97
2018-06-24T03:17:11.896Z,4.37
2018-06-24T03:20:15.478Z,4.30
2018-06-24T03:23:19.148Z,4.80
2018-06-24T03:26:23.027Z,4.73
2018-06-24T03:29:26.607Z,5.47
2018-06-24T03:32:30.489Z,5.20
2018-06-24T03:35:34.080Z,4.90
2018-06-24T03:38:37.718Z,4.77
2018-06-24T03:41:41.423Z,5.20
2018-06-24T03:44:45.077Z,4.53
2018-06-24T03:47:48.775Z,4.50
2018-06-24T03:50:52.443Z,5.00
2018-06-24T03:53:56.079Z,4.40
2018-06-24T03:56:59.847Z,5.00
2018-06-24T04:00:03.617Z,4.50
2018-06-24T04:03:07.359Z,4.67
2018-06-24T04:06:11.089Z,4.40
2018-06-24T04:09:14.659Z,4.30
2018-06-24T04:12:18.448Z,4.53
2018-06-24T04:15:22.282Z,4.73
2018-06-24T04:18:29.815Z,4.57
2018-06-24T04:21:33.447Z,5.20
2018-06-24T04:24:37.328Z,4.40
2018-06-24T04:27:41.138Z,6.63
2018-06-24T04:30:44.748Z,4.30
2018-06-24T04:33:48.349Z,4.50
2018-06-24T04:36:52.002Z,4.30
2018-06-24T04:39:55.629Z,4.73
2018-06-24T04:42:59.477Z,4.63
2018-06-24T04:46:03.110Z,4.90
2018-06-24T04:49:06.745Z,4.80
2018-06-24T04:52:10.409Z,4.80
2018-06-24T04:55:14.078Z,4.70
2018-06-24T04:58:17.711Z,4.90
2018-06-24T05:01:21.608Z,4.63
2018-06-24T05:04:25.301Z,4.37
2018-06-24T05:07:28.939Z,4.03
2018-06-24T05:10:32.628Z,4.40
2018-06-24T05:13:36.290Z,4.57
2018-06-24T05:16:40.005Z,4.60
2018-06-24T05:19:43.716Z,4.63
2018-06-24T05:22:47.260Z,5.20
2018-06-24T05:25:50.936Z,3.87
2018-06-24T05:28:54.694Z,4.50
2018-06-24T05:31:58.285Z,4.40
2018-06-24T05:35:01.881Z,4.30
2018-06-24T05:38:06.400Z,4.70
2018-06-24T05:41:10.180Z,5.17
2018-06-24T05:44:13.789Z,5.00
2018-06-24T05:47:17.447Z,4.90
2018-06-24T05:50:21.125Z,5.73
2018-06-24T05:53:24.820Z,5.20
2018-06-24T05:56:28.515Z,5.43
2018-06-24T05:59:32.200Z,5.30
2018-06-24T06:02:35.919Z,5.20
2018-06-24T06:05:39.580Z,5.13
2018-06-24T06:08:43.425Z,5.20
2018-06-24T06:11:47.106Z,4.30
2018-06-24T06:14:50.911Z,5.70
2018-06-24T06:17:54.585Z,4.93
2018-06-24T06:20:58.281Z,5.30
2018-06-24T06:24:02.119Z,5.20
2018-06-24T06:27:05.880Z,5.37
2018-06-24T06:30:09.726Z,5.70
2018-06-24T06:33:13.296Z,5.10
2018-06-24T06:36:16.935Z,5.27
2018-06-24T06:39:20.554Z,5.27
2018-06-24T06:42:24.215Z,4.87
2018-06-24T06:45:27.990Z,5.53
2018-06-24T06:48:31.740Z,5.37
2018-06-24T06:51:35.423Z,5.50
2018-06-24T06:54:39.190Z,6.00
2018-06-24T06:57:42.895Z,5.73
2018-06-24T07:00:46.491Z,5.77
2018-06-24T07:03:50.154Z,5.60
2018-06-24T07:06:53.865Z,5.67
2018-06-24T07:09:57.539Z,5.50
2018-06-24T07:13:01.472Z,6.00
2018-06-24T07:16:05.344Z,5.70
2018-06-24T07:19:09.109Z,5.90
2018-06-24T07:22:12.775Z,5.80
2018-06-24T07:25:16.475Z,6.17
2018-06-24T07:28:20.295Z,5.43
2018-06-24T07:31:24.056Z,5.87
2018-06-24T07:34:27.922Z,6.47
2018-06-24T07:37:31.679Z,5.93
2018-06-24T07:40:35.392Z,5.57
2018-06-24T07:43:39.037Z,6.83
2018-06-24T07:46:43.036Z,6.30
2018-06-24T07:49:46.810Z,6.20
2018-06-24T07:52:51.850Z,6.50
2018-06-24T07:55:55.501Z,5.97
2018-06-24T07:58:59.122Z,5.33
2018-06-24T08:02:02.815Z,5.03
2018-06-24T08:05:06.530Z,5.40
2018-06-24T08:08:10.345Z,5.23
2018-06-24T08:11:14.110Z,5.70
2018-06-24T08:14:17.723Z,5.40
2018-06-24T08:17:21.427Z,5.63
2018-06-24T08:20:25.092Z,5.40
2018-06-24T08:23:29.257Z,5.40
2018-06-24T08:26:33.855Z,5.80
2018-06-24T08:29:37.601Z,5.33
2018-06-24T08:32:41.271Z,5.07
2018-06-24T08:35:44.903Z,5.53
2018-06-24T08:38:48.702Z,5.13
2018-06-24T08:41:52.463Z,5.47
2018-06-24T08:44:56.116Z,5.10
2018-06-24T08:48:01.832Z,4.93
2018-06-24T08:51:05.797Z,4.80
2018-06-24T08:54:09.411Z,5.33
2018-06-24T08:57:13.231Z,5.30
2018-06-24T09:00:16.947Z,5.67
2018-06-24T09:03:20.638Z,5.53
2018-06-24T09:06:24.490Z,6.03
2018-06-24T09:09:28.140Z,5.57
2018-06-24T09:12:31.927Z,6.00
2018-06-24T09:15:35.804Z,5.73
2018-06-24T09:18:39.508Z,5.60
2018-06-24T09:21:43.219Z,5.97
2018-06-24T09:24:47.106Z,6.30
2018-06-24T09:27:50.908Z,5.83
2018-06-24T09:30:54.674Z,6.00
2018-06-24T09:33:58.340Z,6.30
2018-06-24T09:37:02.232Z,6.17
2018-06-24T09:40:06.077Z,6.67
2018-06-24T09:43:09.818Z,6.07
2018-06-24T09:46:13.662Z,4.60
2018-06-24T09:49:17.335Z,4.87
2018-06-24T09:52:21.025Z,4.50
2018-06-24T09:55:24.719Z,5.53
2018-06-24T09:58:28.329Z,4.90
2018-06-24T10:01:31.943Z,4.80
2018-06-24T10:04:36.030Z,4.57
2018-06-24T10:07:39.735Z,4.73
2018-06-24T10:10:43.486Z,3.90
2018-06-24T10:13:47.333Z,4.10
2018-06-24T10:16:51.249Z,3.80
2018-06-24T10:19:54.882Z,4.67
2018-06-24T10:22:58.619Z,4.63
2018-06-24T10:26:02.799Z,4.03
2018-06-24T10:29:06.742Z,3.77
2018-06-24T10:32:10.680Z,3.77
2018-06-24T10:35:14.391Z,4.33
2018-06-24T10:38:18.107Z,3.70
2018-06-24T10:41:21.905Z,3.57
2018-06-24T10:44:32.285Z,3.60
2018-06-24T10:47:36.116Z,3.80
2018-06-24T10:50:40.249Z,4.13
2018-06-24T10:53:43.972Z,4.10
2018-06-24T10:56:47.663Z,4.50
2018-06-24T10:59:51.316Z,4.43
2018-06-24T11:02:54.957Z,4.50
2018-06-24T11:05:58.693Z,4.53
2018-06-24T11:09:02.446Z,4.17
2018-06-24T11:12:06.282Z,4.90
2018-06-24T11:15:10.133Z,4.90
2018-06-24T11:18:13.743Z,4.80
2018-06-24T11:21:17.340Z,5.27
2018-06-24T11:24:21.408Z,4.97
2018-06-24T11:27:25.113Z,5.70
2018-06-24T11:30:28.857Z,5.30
2018-06-24T11:33:32.474Z,4.30
2018-06-24T11:36:36.272Z,4.83
2018-06-24T11:39:40.059Z,5.40
2018-06-24T11:42:43.742Z,4.50
2018-06-24T11:45:47.474Z,5.70
2018-06-24T11:48:51.085Z,5.00
2018-06-24T11:51:54.726Z,4.73
2018-06-24T11:54:58.437Z,5.00
2018-06-24T11:58:02.855Z,4.30
2018-06-24T12:01:06.522Z,4.20
2018-06-24T12:04:10.255Z,4.67
2018-06-24T12:07:14.399Z,4.60
2018-06-24T12:10:18.133Z,5.13
2018-06-24T12:13:21.870Z,4.33
2018-06-24T12:16:25.630Z,3.93
2018-06-24T12:19:29.364Z,4.57
2018-06-24T12:22:33.200Z,4.73
2018-06-24T12:25:36.889Z,4.40
2018-06-24T12:28:40.718Z,5.50
2018-06-24T12:31:44.379Z,4.93
2018-06-24T12:34:48.059Z,6.40
2018-06-24T12:37:51.671Z,6.00
2018-06-24T12:40:55.399Z,6.00
2018-06-24T12:43:59.048Z,6.20
2018-06-24T12:47:02.744Z,6.37
2018-06-24T12:50:06.485Z,6.50
2018-06-24T12:53:10.215Z,6.13
2018-06-24T12:56:13.847Z,6.00
2018-06-24T12:59:17.819Z,5.63
2018-06-24T13:02:21.286Z,5.40
2018-06-24T13:05:25.067Z,5.27
2018-06-24T13:08:28.669Z,6.50
2018-06-24T13:11:32.421Z,5.43
2018-06-24T13:14:36.885Z,5.77
2018-06-24T13:17:40.530Z,5.33
2018-06-24T13:20:44.138Z,5.77
2018-06-24T13:23:48.019Z,5.97
2018-06-24T13:26:51.787Z,5.63
2018-06-24T13:29:55.480Z,5.40
2018-06-24T13:32:59.156Z,5.27
2018-06-24T13:36:02.895Z,5.07
2018-06-24T13:39:09.069Z,5.03
2018-06-24T13:42:14.057Z,4.60
2018-06-24T13:45:17.746Z,4.80
2018-06-24T13:48:21.386Z,4.80
2018-06-24T13:51:25.210Z,5.00
2018-06-24T13:54:28.940Z,4.17
2018-06-24T13:57:32.606Z,4.17
2018-06-24T14:00:36.289Z,2.87
2018-06-24T14:03:39.945Z,3.57
2018-06-24T14:06:43.685Z,2.93
2018-06-24T14:09:47.459Z,2.97
2018-06-24T14:12:51.425Z,3.07
2018-06-24T14:15:55.101Z,3.40
2018-06-24T14:18:58.816Z,3.53
2018-06-24T14:22:02.500Z,3.57
2018-06-24T14:25:06.466Z,3.37
2018-06-24T14:28:10.190Z,3.10
2018-06-24T14:31:13.879Z,3.17
2018-06-24T14:34:17.548Z,2.90
2018-06-24T14:37:21.230Z,3.10
2018-06-24T14:40:24.906Z,3.07
2018-06-24T14:43:28.615Z,2.60
2018-06-24T14:46:32.439Z,2.87
2018-06-24T14:49:36.127Z,2.60
2018-06-24T14:52:39.846Z,2.50
2018-06-24T14:55:43.626Z,2.70
2018-06-24T14:58:47.280Z,2.77
2018-06-24T15:01:51.069Z,3.03
2018-06-24T15:04:54.794Z,3.30
2018-06-24T15:07:58.464Z,3.47
2018-06-24T15:11:02.263Z,3.57
2018-06-24T15:14:06.067Z,3.63
2018-06-24T15:17:09.740Z,3.90
2018-06-24T15:20:13.516Z,3.50
2018-06-24T15:23:17.861Z,3.50
2018-06-24T15:26:21.604Z,4.07
2018-06-24T15:29:25.399Z,3.57
2018-06-24T15:32:29.037Z,3.70
2018-06-24T15:35:32.851Z,4.17
2018-06-24T15:38:36.566Z,3.80
2018-06-24T15:41:40.536Z,4.27
2018-06-24T15:44:44.407Z,4.40
2018-06-24T15:47:48.154Z,4.20
2018-06-24T15:50:51.921Z,4.70
2018-06-24T15:53:55.581Z,4.50
2018-06-24T15:56:59.215Z,4.40
2018-06-24T16:00:02.916Z,5.13
2018-06-24T16:03:07.093Z,5.40
2018-06-24T16:06:10.767Z,5.20
2018-06-24T16:09:14.477Z,5.10
2018-06-24T16:12:18.138Z,5.20
2018-06-24T16:15:21.783Z,6.20
2018-06-24T16:18:25.516Z,5.90
2018-06-24T16:21:29.357Z,5.90
2018-06-24T16:24:33.191Z,5.80
2018-06-24T16:27:36.908Z,5.80
2018-06-24T16:30:40.673Z,5.80
2018-06-24T16:33:44.411Z,4.90
2018-06-24T16:36:48.182Z,5.90
2018-06-24T16:39:52.009Z,5.70
2018-06-24T16:42:55.732Z,5.30
2018-06-24T16:45:59.515Z,4.90
2018-06-24T16:49:03.358Z,4.67
2018-06-24T16:52:07.138Z,5.20
2018-06-24T16:55:10.816Z,5.30
2018-06-24T16:58:14.620Z,5.13
2018-06-24T17:01:18.408Z,4.63
2018-06-24T17:04:22.055Z,5.33
2018-06-24T17:07:25.742Z,5.23
2018-06-24T17:10:29.433Z,5.70
2018-06-24T17:13:33.263Z,5.43
2018-06-24T17:16:37.928Z,5.10
2018-06-24T17:19:41.547Z,5.17
2018-06-24T17:22:45.528Z,5.37
2018-06-24T17:25:49.490Z,5.50
2018-06-24T17:28:53.340Z,5.80
2018-06-24T17:31:57.029Z,5.57
2018-06-24T17:35:00.712Z,5.70
2018-06-24T17:38:04.511Z,5.60
2018-06-24T17:41:08.348Z,5.00
2018-06-24T17:44:12.009Z,5.20
2018-06-24T17:47:15.694Z,5.37
2018-06-24T17:50:21.251Z,5.90
2018-06-24T17:53:25.101Z,6.20
2018-06-24T17:56:28.897Z,6.10
2018-06-24T17:59:32.568Z,5.57
2018-06-24T18:02:36.353Z,5.63
2018-06-24T18:05:40.008Z,7.03
2018-06-24T18:08:43.792Z,5.60
2018-06-24T18:11:47.475Z,5.57
2018-06-24T18:14:51.160Z,6.10
2018-06-24T18:17:54.936Z,5.60
2018-06-24T18:20:58.790Z,5.13
2018-06-24T18:24:02.703Z,5.73
2018-06-24T18:27:06.942Z,6.30
2018-06-24T18:30:10.642Z,5.77
2018-06-24T18:33:14.437Z,5.93
2018-06-24T18:36:18.437Z,5.40
2018-06-24T18:39:22.279Z,5.87
2018-06-24T18:42:25.958Z,5.80
2018-06-24T18:45:29.871Z,5.50
2018-06-24T18:48:33.665Z,5.70
2018-06-24T18:51:37.400Z,5.53
2018-06-24T18:54:41.095Z,5.33
2018-06-24T18:57:44.834Z,5.60
2018-06-24T19:00:48.582Z,5.70
2018-06-24T19:03:52.404Z,5.20
2018-06-24T19:06:56.221Z,5.67
2018-06-24T19:10:00.010Z,5.03
2018-06-24T19:13:03.699Z,5.37
2018-06-24T19:16:07.560Z,5.00
2018-06-24T19:19:11.459Z,5.50
2018-06-24T19:22:15.493Z,5.50
2018-06-24T19:25:19.411Z,5.40
2018-06-24T19:28:23.070Z,5.30
2018-06-24T19:31:26.833Z,5.30
2018-06-24T19:34:30.544Z,5.90
2018-06-24T19:37:34.271Z,5.60
2018-06-24T19:40:38.090Z,5.60
2018-06-24T19:43:41.914Z,5.63
2018-06-24T19:46:45.552Z,5.80
2018-06-24T19:49:49.256Z,4.90
2018-06-24T19:52:53.406Z,5.83
2018-06-24T19:55:57.130Z,5.83
2018-06-24T19:59:00.973Z,5.23
2018-06-24T20:02:04.858Z,5.40
2018-06-24T20:05:08.625Z,5.60
2018-06-24T20:08:12.365Z,5.77
2018-06-24T20:11:16.143Z,5.50
2018-06-24T20:14:19.800Z,5.60
2018-06-24T20:17:26.628Z,5.70
2018-06-24T20:20:30.376Z,5.60
2018-06-24T20:23:34.304Z,6.33
2018-06-24T20:26:38.026Z,5.73
2018-06-24T20:29:41.724Z,5.60
2018-06-24T20:32:45.538Z,6.70
2018-06-24T20:35:50.246Z,6.13
2018-06-24T20:38:54.011Z,5.53
2018-06-24T20:41:57.718Z,5.20
2018-06-24T20:45:01.438Z,5.00
2018-06-24T20:48:08.251Z,5.70
2018-06-24T20:51:12.121Z,4.93
2018-06-24T20:54:15.971Z,4.83
2018-06-24T20:57:19.718Z,5.20
2018-06-24T21:00:23.413Z,5.57
2018-06-24T21:03:27.066Z,4.80
2018-06-24T21:06:30.715Z,4.97
2018-06-24T21:09:34.424Z,5.47
2018-06-24T21:12:37.999Z,4.73
2018-06-24T21:15:41.713Z,5.50
2018-06-24T21:18:45.336Z,5.17
2018-06-24T21:21:48.924Z,4.77
2018-06-24T21:24:52.701Z,4.50
2018-06-24T21:27:56.290Z,4.80
2018-06-24T21:31:00.040Z,4.80
2018-06-24T21:34:03.688Z,4.43
2018-06-24T21:37:07.304Z,4.53
2018-06-24T21:40:10.993Z,4.17
2018-06-24T21:43:14.621Z,4.50
2018-06-24T21:46:18.280Z,4.70
2018-06-24T21:49:22.394Z,4.47
2018-06-24T21:52:26.051Z,4.63
2018-06-24T21:55:29.736Z,4.57
2018-06-24T21:58:33.339Z,5.53
2018-06-24T22:01:37.005Z,5.30
2018-06-24T22:04:40.704Z,4.20
2018-06-24T22:07:44.326Z,4.50
2018-06-24T22:10:47.974Z,4.20
2018-06-24T22:13:52.022Z,4.30
2018-06-24T22:16:55.657Z,4.23
2018-06-24T22:19:59.324Z,3.93
2018-06-24T22:23:02.996Z,4.50
2018-06-24T22:26:07.000Z,3.97
2018-06-24T22:29:10.626Z,4.50
2018-06-24T22:32:14.277Z,4.43
2018-06-24T22:35:18.015Z,4.50
2018-06-24T22:38:21.754Z,4.60
2018-06-24T22:41:25.437Z,4.97
2018-06-24T22:44:29.135Z,4.50
2018-06-24T22:47:32.750Z,4.20
2018-06-24T22:50:36.455Z,4.27
2018-06-24T22:53:40.047Z,3.87
2018-06-24T22:56:43.636Z,4.20
2018-06-24T23:00:11.371Z,4.43
2018-06-24T23:03:14.959Z,4.70
2018-06-24T23:06:18.776Z,4.77
2018-06-24T23:09:22.389Z,5.03
2018-06-24T23:12:26.020Z,4.90
2018-06-24T23:15:29.637Z,4.87
2018-06-24T23:18:33.247Z,5.40
2018-06-24T23:21:36.788Z,4.60
2018-06-24T23:24:40.621Z,5.67
2018-06-24T23:27:44.302Z,5.30
2018-06-24T23:30:48.034Z,5.70
2018-06-24T23:33:51.607Z,5.97
2018-06-24T23:36:55.240Z,5.80
2018-06-24T23:39:58.851Z,5.40
2018-06-24T23:43:02.565Z,5.57
2018-06-24T23:46:06.500Z,6.60
2018-06-24T23:49:10.080Z,6.87
2018-06-24T23:52:13.702Z,7.03
2018-06-24T23:55:17.417Z,6.23
2018-06-24T23:58:20.988Z,6.60
